Time;durP1;ratioP1;P1;durP2;ratioP2;P2;SDS_P1;SDS_P2;PMS_P1;PMS_P2;Temp;Humidity;BMP_temperature;BMP_pressure;BME280_temperature;BME280_humidity;BME280_pressure;Samples;Min_cycle;Max_cycle;Signal;HPM_P1;HPM_P2
2022/04/25 00:00:38;;;;;;;11.93;10.83;;;13.90;98.70;;;;;;5014409;28;20417;-68
2022/04/25 00:03:04;;;;;;;11.93;10.83;;;13.90;98.60;;;;;;5013768;28;20182;-67
2022/04/25 00:05:30;;;;;;;11.87;10.80;;;13.80;98.80;;;;;;5014767;28;20429;-76
2022/04/25 00:07:55;;;;;;;11.90;10.90;;;13.80;99.20;;;;;;5014898;28;20418;-68
2022/04/25 00:10:22;;;;;;;11.43;10.43;;;13.90;99.00;;;;;;5014700;28;20913;-67
2022/04/25 00:12:47;;;;;;;12.13;11.07;;;13.90;99.00;;;;;;5014273;28;20480;-68
2022/04/25 00:15:13;;;;;;;11.83;10.17;;;13.90;99.00;;;;;;5015259;28;20820;-67
2022/04/25 00:17:39;;;;;;;12.30;11.10;;;13.90;98.90;;;;;;5014180;28;20654;-68
2022/04/25 00:20:05;;;;;;;11.90;10.70;;;13.90;98.80;;;;;;5014571;28;20566;-68
2022/04/25 00:22:31;;;;;;;12.30;11.10;;;13.90;98.60;;;;;;5014301;28;20202;-76
2022/04/25 00:24:57;;;;;;;11.47;10.37;;;14.00;98.70;;;;;;5014039;28;20898;-67
2022/04/25 00:27:25;;;;;;;10.73;9.73;;;13.90;98.70;;;;;;5014966;28;20318;-67
2022/04/25 00:29:50;;;;;;;11.30;10.20;;;13.90;99.00;;;;;;5013629;28;21003;-68
2022/04/25 00:32:16;;;;;;;10.80;9.70;;;14.00;99.00;;;;;;5013839;28;20454;-68
2022/04/25 00:34:42;;;;;;;10.60;9.60;;;14.00;99.10;;;;;;5012955;28;20183;-68
2022/04/25 00:37:08;;;;;;;11.50;10.50;;;14.00;99.00;;;;;;5014330;28;20179;-67
2022/04/25 00:39:34;;;;;;;12.03;10.93;;;14.00;98.70;;;;;;5014395;28;20262;-77
2022/04/25 00:42:00;;;;;;;11.60;10.50;;;14.00;98.70;;;;;;5013777;28;20191;-68
2022/04/25 00:44:25;;;;;;;11.50;10.37;;;14.00;98.70;;;;;;5013974;28;20486;-68
2022/04/25 00:46:55;;;;;;;11.33;7.77;;;14.00;99.20;;;;;;5013365;28;20945;-67
2022/04/25 00:49:23;;;;;;;10.20;7.47;;;14.00;98.80;;;;;;5014364;28;20222;-68
2022/04/25 00:51:51;;;;;;;10.47;7.40;;;13.80;96.50;;;;;;5012403;28;20961;-68
2022/04/25 00:54:23;;;;;;;9.10;7.77;;;13.50;95.60;;;;;;5014424;28;20444;-67
2022/04/25 00:56:49;;;;;;;9.03;7.00;;;13.30;94.90;;;;;;5014014;28;20509;-68
2022/04/25 00:59:17;;;;;;;13.10;7.47;;;13.10;95.00;;;;;;5013959;28;20420;-68
2022/04/25 01:01:43;;;;;;;8.10;7.27;;;12.80;95.60;;;;;;5012290;28;20791;-68
2022/04/25 01:04:10;;;;;;;7.60;6.90;;;12.50;96.30;;;;;;4996178;28;20429;-67
2022/04/25 01:06:36;;;;;;;7.30;6.60;;;12.40;97.10;;;;;;5012291;28;20830;-76
2022/04/25 01:09:03;;;;;;;7.43;6.73;;;12.30;97.60;;;;;;5013729;28;20433;-67
2022/04/25 01:11:29;;;;;;;8.43;7.47;;;12.20;98.40;;;;;;5011036;28;20451;-67
2022/04/25 01:13:54;;;;;;;7.13;6.53;;;12.10;99.10;;;;;;5011644;28;21206;-68
2022/04/25 01:16:20;;;;;;;7.53;6.83;;;12.10;99.60;;;;;;5012597;28;20184;-67
2022/04/25 01:18:46;;;;;;;7.20;6.50;;;12.10;99.90;;;;;;5011385;28;20248;-68
2022/04/25 01:21:14;;;;;;;9.60;7.33;;;12.00;99.90;;;;;;5013567;28;20183;-67
2022/04/25 01:29:28;;;;;;;7.90;6.97;;;12.00;99.90;;;;;;4991281;28;20436;-67
2022/04/25 01:31:54;;;;;;;8.73;7.80;;;12.00;99.90;;;;;;4986677;28;21040;-67
2022/04/25 01:34:20;;;;;;;9.53;7.90;;;11.90;99.90;;;;;;5013507;28;20421;-67
2022/04/25 01:36:45;;;;;;;8.97;8.17;;;11.80;99.90;;;;;;5012265;28;20179;-68
2022/04/25 01:39:11;;;;;;;8.20;7.47;;;11.90;99.90;;;;;;5013401;28;20175;-67
2022/04/25 01:41:37;;;;;;;9.20;8.03;;;11.90;99.90;;;;;;5011603;28;20187;-75
2022/04/25 01:44:03;;;;;;;8.57;7.80;;;11.90;99.90;;;;;;5011471;28;20182;-67
2022/04/25 01:46:28;;;;;;;7.37;6.60;;;11.90;99.90;;;;;;5013297;28;20171;-67
2022/04/25 01:48:54;;;;;;;7.77;7.07;;;11.90;99.90;;;;;;5010417;28;20467;-68
2022/04/25 01:51:20;;;;;;;7.80;7.10;;;11.90;99.90;;;;;;5013095;28;20264;-68
2022/04/25 01:53:45;;;;;;;8.83;8.03;;;11.90;99.90;;;;;;5007337;28;20648;-67
2022/04/25 01:56:11;;;;;;;7.50;6.80;;;11.90;99.90;;;;;;5012567;28;20179;-68
2022/04/25 01:58:37;;;;;;;7.50;6.80;;;11.90;99.90;;;;;;5012645;28;20211;-69
2022/04/25 02:01:06;;;;;;;7.10;6.50;;;12.00;99.90;;;;;;5013441;28;20237;-68
2022/04/25 02:03:33;;;;;;;8.20;7.50;;;12.00;99.90;;;;;;5012707;28;20175;-67
2022/04/25 02:05:58;;;;;;;7.17;6.57;;;12.00;99.90;;;;;;5012123;28;20525;-68
2022/04/25 02:08:24;;;;;;;6.87;6.30;;;12.10;99.90;;;;;;5012313;28;20447;-68
2022/04/25 02:11:19;;;;;;;7.83;7.13;;;12.10;99.90;;;;;;5011658;28;20205;-68
2022/04/25 02:13:35;;;;;;;7.37;6.67;;;12.00;99.90;;;;;;5012361;28;20533;-67
2022/04/25 02:16:01;;;;;;;7.60;6.90;;;12.00;99.90;;;;;;5012186;28;20447;-67
2022/04/25 02:18:27;;;;;;;7.90;7.20;;;11.90;99.90;;;;;;5010732;28;20550;-72
2022/04/25 02:20:52;;;;;;;10.27;7.57;;;11.80;99.90;;;;;;5011454;28;20805;-67
2022/04/25 02:23:18;;;;;;;8.57;7.87;;;11.90;99.90;;;;;;5012960;28;20207;-68
2022/04/25 02:25:44;;;;;;;7.83;7.13;;;12.00;99.90;;;;;;5010988;28;20194;-68
2022/04/25 02:28:10;;;;;;;7.43;6.93;;;12.10;99.90;;;;;;5011490;28;20266;-67
2022/04/25 02:30:35;;;;;;;7.97;7.17;;;12.10;99.90;;;;;;5012219;28;20179;-68
2022/04/25 02:33:01;;;;;;;7.63;6.93;;;12.10;99.90;;;;;;5011462;28;20192;-68
2022/04/25 02:35:26;;;;;;;8.87;8.07;;;12.10;99.90;;;;;;5012438;28;20196;-68
2022/04/25 02:37:52;;;;;;;8.47;7.77;;;12.20;99.90;;;;;;5010456;28;20191;-68
2022/04/25 02:40:18;;;;;;;8.70;7.90;;;12.20;99.90;;;;;;5012258;28;20554;-67
2022/04/25 02:42:43;;;;;;;8.00;7.30;;;12.20;99.90;;;;;;5009924;28;20277;-67
2022/04/25 02:45:11;;;;;;;7.77;7.17;;;12.20;99.90;;;;;;5012253;28;20174;-68
2022/04/25 02:47:37;;;;;;;9.10;7.80;;;12.10;99.90;;;;;;5011866;28;20270;-67
2022/04/25 02:50:03;;;;;;;8.57;7.90;;;12.10;99.90;;;;;;5010567;28;20736;-71
2022/04/25 02:52:28;;;;;;;9.30;8.40;;;12.10;99.90;;;;;;5010806;28;20206;-68
2022/04/25 02:54:54;;;;;;;9.57;8.67;;;12.10;99.90;;;;;;5012036;28;20976;-67
2022/04/25 02:57:20;;;;;;;9.63;8.63;;;12.10;99.90;;;;;;5011920;28;20636;-68
2022/04/25 02:59:45;;;;;;;8.50;7.80;;;12.20;99.90;;;;;;5008047;28;20195;-68
2022/04/25 03:02:11;;;;;;;9.10;8.20;;;12.20;99.90;;;;;;5012183;28;20186;-68
2022/04/25 03:04:37;;;;;;;8.67;7.93;;;12.20;99.90;;;;;;5011384;28;20239;-68
2022/04/25 03:07:03;;;;;;;9.33;8.27;;;12.20;99.90;;;;;;5010634;28;20175;-67
2022/04/25 03:09:28;;;;;;;8.70;7.90;;;12.20;99.90;;;;;;5007594;28;20198;-68
2022/04/25 03:11:54;;;;;;;9.73;8.50;;;12.20;99.90;;;;;;5009272;28;20446;-68
2022/04/25 03:14:20;;;;;;;8.80;8.00;;;12.30;99.90;;;;;;5009239;28;20179;-69
2022/04/25 03:16:46;;;;;;;9.07;8.17;;;12.30;99.90;;;;;;5009713;28;20189;-68
2022/04/25 03:19:11;;;;;;;10.33;9.10;;;12.30;99.90;;;;;;5010754;28;20266;-68
2022/04/25 03:21:37;;;;;;;10.10;9.27;;;12.30;99.90;;;;;;5010762;28;20668;-68
2022/04/25 03:24:03;;;;;;;10.33;9.30;;;12.30;99.90;;;;;;5026695;28;20231;-68
2022/04/25 03:26:29;;;;;;;10.80;9.67;;;12.30;99.90;;;;;;5012117;28;20537;-68
2022/04/25 03:28:54;;;;;;;10.13;9.23;;;12.20;99.90;;;;;;5011012;28;20421;-68
2022/04/25 03:31:20;;;;;;;10.60;9.70;;;12.20;99.90;;;;;;5011535;28;20264;-68
2022/04/25 03:33:46;;;;;;;11.33;10.33;;;12.20;99.90;;;;;;5011090;28;20241;-69
2022/04/25 03:36:12;;;;;;;10.90;9.90;;;12.20;99.90;;;;;;5010934;28;20230;-67
2022/04/25 03:38:38;;;;;;;12.13;10.83;;;12.20;99.90;;;;;;5014741;28;20179;-68
2022/04/25 03:41:04;;;;;;;13.37;11.60;;;12.20;99.90;;;;;;5014498;28;20191;-68
2022/04/25 03:43:31;;;;;;;11.67;10.67;;;12.20;99.90;;;;;;5015483;28;20421;-68
2022/04/25 03:45:57;;;;;;;12.50;11.40;;;12.20;99.90;;;;;;5013594;28;20261;-68
2022/04/25 03:48:23;;;;;;;12.30;11.13;;;12.10;99.90;;;;;;5014878;28;20497;-68
2022/04/25 03:50:49;;;;;;;12.30;11.07;;;12.10;99.90;;;;;;5014355;28;20261;-68
2022/04/25 03:53:15;;;;;;;12.30;11.23;;;12.00;99.90;;;;;;5014583;28;20445;-68
2022/04/25 03:58:25;;;;;;;12.03;10.93;;;11.90;99.90;;;;;;5015345;28;20171;-68
2022/04/25 04:00:51;;;;;;;11.90;10.70;;;11.90;99.90;;;;;;5013076;28;20417;-68
2022/04/25 04:03:18;;;;;;;11.83;10.83;;;11.70;99.90;;;;;;5013919;28;20422;-68
2022/04/25 04:05:45;;;;;;;10.70;9.70;;;11.70;99.90;;;;;;5014930;28;20876;-78
2022/04/25 04:08:11;;;;;;;11.27;10.23;;;11.70;99.90;;;;;;5014948;28;20422;-68
2022/04/25 04:10:36;;;;;;;12.73;11.23;;;11.60;99.90;;;;;;5014504;28;20429;-68
2022/04/25 04:13:02;;;;;;;12.13;11.00;;;11.60;99.90;;;;;;5014010;28;20426;-70
2022/04/25 04:15:28;;;;;;;10.97;9.83;;;11.70;99.90;;;;;;4996731;28;20521;-70
2022/04/25 04:17:54;;;;;;;11.40;10.30;;;11.70;99.90;;;;;;5013895;28;20464;-70
2022/04/25 04:20:19;;;;;;;11.30;10.30;;;11.70;99.90;;;;;;5013850;28;20210;-70
2022/04/25 04:22:45;;;;;;;15.43;10.83;;;11.70;99.90;;;;;;4994693;28;20242;-70
2022/04/25 04:25:13;;;;;;;12.53;11.33;;;11.70;99.90;;;;;;4984860;28;20218;-70
2022/04/25 04:27:43;;;;;;;12.23;11.03;;;11.80;99.90;;;;;;5015168;28;20213;-70
2022/04/25 04:30:10;;;;;;;12.90;11.60;;;11.80;99.90;;;;;;5013042;28;20454;-72
2022/04/25 04:32:38;;;;;;;12.97;11.77;;;11.80;99.90;;;;;;5014578;28;20460;-69
2022/04/25 04:35:10;;;;;;;11.87;10.77;;;11.80;99.90;;;;;;5013639;28;21102;-70
2022/04/25 04:37:37;;;;;;;12.07;10.87;;;11.90;99.90;;;;;;5014501;28;20429;-70
2022/04/25 04:42:49;;;;;;;12.00;10.90;;;11.80;99.90;;;;;;5000929;28;20414;-70
2022/04/25 04:45:15;;;;;;;11.93;10.87;;;11.80;99.90;;;;;;5014587;28;20456;-69
2022/04/25 04:47:41;;;;;;;10.80;9.70;;;11.90;99.90;;;;;;5013496;28;20190;-70
2022/04/25 04:50:15;;;;;;;13.20;12.00;;;11.90;99.90;;;;;;5012795;28;20740;-70
2022/04/25 04:52:46;;;;;;;11.90;10.70;;;11.90;99.90;;;;;;4993415;28;20507;-70
2022/04/25 04:55:12;;;;;;;13.80;11.50;;;11.90;99.90;;;;;;4996938;28;20497;-70
2022/04/25 04:57:39;;;;;;;14.63;13.13;;;11.90;99.90;;;;;;5012300;28;20462;-70
2022/04/25 05:00:06;;;;;;;13.20;11.90;;;11.90;99.90;;;;;;5013327;28;20426;-73
2022/04/25 05:02:32;;;;;;;12.70;11.50;;;11.80;99.90;;;;;;5010820;28;20425;-70
2022/04/25 05:04:59;;;;;;;13.80;12.50;;;11.90;99.90;;;;;;5012489;28;20444;-70
2022/04/25 05:07:25;;;;;;;14.70;13.20;;;11.70;99.90;;;;;;5006519;28;20428;-70
2022/04/25 05:09:51;;;;;;;14.17;12.87;;;11.60;99.90;;;;;;5004572;28;20429;-70
2022/04/25 05:12:17;;;;;;;12.50;11.40;;;11.70;99.90;;;;;;5013924;28;20210;-70
2022/04/25 05:14:43;;;;;;;14.20;12.00;;;11.70;99.90;;;;;;5028626;28;20962;-69
2022/04/25 05:17:08;;;;;;;14.37;12.87;;;11.70;99.90;;;;;;5012595;28;20176;-70
2022/04/25 05:19:34;;;;;;;14.00;12.67;;;11.70;99.90;;;;;;5012388;28;20182;-70
2022/04/25 05:22:00;;;;;;;13.90;12.50;;;11.70;99.90;;;;;;4992314;28;20183;-70
2022/04/25 05:24:25;;;;;;;13.13;11.83;;;11.70;99.90;;;;;;5013225;28;20191;-70
2022/04/25 05:26:51;;;;;;;13.77;12.00;;;11.70;99.90;;;;;;5010974;28;20183;-75
2022/04/25 05:29:17;;;;;;;12.80;11.50;;;11.70;99.90;;;;;;5013201;28;20259;-70
2022/04/25 05:31:43;;;;;;;12.90;11.70;;;11.70;99.90;;;;;;5012969;28;20242;-71
2022/04/25 05:34:09;;;;;;;12.97;11.73;;;11.80;99.90;;;;;;5012063;28;20176;-72
2022/04/25 05:36:41;;;;;;;13.77;12.33;;;11.70;99.90;;;;;;5013694;28;20498;-75
2022/04/25 05:39:07;;;;;;;13.60;12.20;;;11.80;99.90;;;;;;5012784;28;20448;-75
2022/04/25 05:41:33;;;;;;;14.80;12.93;;;11.80;99.90;;;;;;5011991;28;20453;-75
2022/04/25 05:43:58;;;;;;;14.97;13.47;;;11.80;99.90;;;;;;5013073;28;20909;-75
2022/04/25 05:46:24;;;;;;;17.03;12.57;;;11.80;99.90;;;;;;5013271;28;20179;-71
2022/04/25 05:54:19;;;;;;;13.30;12.00;;;12.70;99.90;;;;;;5009949;28;20468;-72
2022/04/25 05:56:45;;;;;;;12.40;11.20;;;13.00;99.90;;;;;;5011724;28;20827;-73
2022/04/25 05:59:11;;;;;;;11.63;10.53;;;13.40;99.90;;;;;;5011711;28;20226;-73
2022/04/25 06:01:37;;;;;;;12.87;11.63;;;13.70;99.90;;;;;;5012488;28;20467;-73
2022/04/25 06:04:03;;;;;;;14.40;13.03;;;14.00;99.90;;;;;;5011976;28;20193;-73
2022/04/25 06:06:28;;;;;;;12.13;10.83;;;14.10;99.90;;;;;;5013317;28;20541;-73
2022/04/25 06:08:54;;;;;;;14.13;12.93;;;14.30;99.90;;;;;;5024696;28;20229;-73
2022/04/25 06:11:21;;;;;;;13.80;12.40;;;14.50;99.90;;;;;;5012127;28;20207;-73
2022/04/25 06:13:50;;;;;;;13.70;12.53;;;14.70;99.90;;;;;;5012401;28;20193;-73
2022/04/25 06:16:16;;;;;;;13.60;12.30;;;14.90;99.90;;;;;;5012508;28;20472;-74
2022/04/25 06:18:42;;;;;;;12.50;11.30;;;14.90;99.90;;;;;;5012499;28;20445;-74
2022/04/25 06:21:08;;;;;;;14.50;13.20;;;15.00;99.90;;;;;;5012240;28;20430;-71
2022/04/25 06:23:34;;;;;;;16.10;14.60;;;15.10;98.80;;;;;;5012121;28;20434;-71
2022/04/25 06:25:59;;;;;;;15.43;13.93;;;14.80;97.30;;;;;;5011789;28;20175;-72
2022/04/25 06:28:25;;;;;;;14.60;13.20;;;14.10;98.90;;;;;;5013058;28;20178;-71
2022/04/25 06:30:54;;;;;;;15.40;13.80;;;13.60;99.90;;;;;;5010175;28;20176;-75
2022/04/25 06:33:20;;;;;;;17.00;15.03;;;13.40;99.90;;;;;;5012193;28;20690;-71
2022/04/25 06:35:46;;;;;;;14.37;12.87;;;13.30;99.90;;;;;;5001191;28;20433;-71
2022/04/25 06:38:12;;;;;;;16.60;14.90;;;13.20;99.90;;;;;;5007656;28;20914;-71
2022/04/25 06:40:38;;;;;;;17.23;15.53;;;13.00;99.90;;;;;;5012942;28;20172;-72
2022/04/25 06:43:04;;;;;;;16.00;14.50;;;12.90;99.90;;;;;;5012377;28;20211;-72
2022/04/25 06:45:30;;;;;;;17.50;14.40;;;12.90;99.90;;;;;;5011954;28;20179;-72
2022/04/25 06:47:56;;;;;;;15.67;14.17;;;12.80;99.90;;;;;;5011588;28;20554;-72
2022/04/25 06:50:22;;;;;;;16.90;15.07;;;12.80;99.90;;;;;;5012659;28;20433;-71
2022/04/25 06:52:49;;;;;;;14.83;13.47;;;12.70;99.90;;;;;;5012203;28;20454;-71
2022/04/25 06:55:15;;;;;;;15.70;14.17;;;12.70;99.90;;;;;;5002096;28;20468;-71
2022/04/25 06:57:42;;;;;;;13.40;12.20;;;12.60;99.90;;;;;;4993301;28;20530;-71
2022/04/25 07:00:09;;;;;;;13.73;12.40;;;12.50;99.90;;;;;;5011407;28;20824;-71
2022/04/25 07:02:38;;;;;;;12.70;11.40;;;12.40;99.90;;;;;;5012065;28;20449;-71
2022/04/25 07:05:06;;;;;;;11.73;10.60;;;12.40;99.90;;;;;;5012218;28;20772;-72
2022/04/25 07:07:32;;;;;;;11.40;10.40;;;12.40;99.90;;;;;;5012615;28;20432;-71
2022/04/25 07:09:59;;;;;;;12.57;11.27;;;12.20;99.90;;;;;;5012037;28;20426;-71
2022/04/25 07:12:24;;;;;;;16.57;11.10;;;12.20;99.90;;;;;;5011676;28;21045;-71
2022/04/25 07:14:50;;;;;;;12.17;11.10;;;12.20;99.90;;;;;;5013922;28;20509;-71
2022/04/25 07:17:16;;;;;;;11.57;10.40;;;12.10;99.90;;;;;;5014234;28;20186;-71
2022/04/25 07:19:42;;;;;;;11.27;10.20;;;12.20;99.90;;;;;;5016639;28;20183;-71
2022/04/25 07:30:22;;;;;;;10.70;9.60;;;12.20;99.90;;;;;;5014893;28;20433;-71
2022/04/25 07:32:47;;;;;;;11.53;10.33;;;12.20;99.90;;;;;;5015986;28;20975;-71
2022/04/25 07:35:13;;;;;;;11.50;10.40;;;12.10;99.90;;;;;;5015036;28;20181;-72
2022/04/25 07:37:39;;;;;;;12.43;11.30;;;12.20;99.90;;;;;;5016213;28;20524;-79
2022/04/25 07:40:09;;;;;;;11.20;10.20;;;12.20;99.90;;;;;;5014338;28;20179;-78
2022/04/25 07:42:39;;;;;;;10.57;9.63;;;12.20;99.90;;;;;;5015369;28;20437;-78
2022/04/25 07:45:06;;;;;;;9.80;9.00;;;12.30;99.90;;;;;;5016595;28;20508;-72
2022/04/25 07:47:33;;;;;;;9.27;8.47;;;12.40;99.90;;;;;;5015005;28;20429;-71
2022/04/25 07:49:59;;;;;;;9.80;8.87;;;12.40;99.90;;;;;;5013443;28;20520;-75
2022/04/25 07:52:25;;;;;;;9.17;8.40;;;12.40;99.90;;;;;;5014809;28;20833;-72
2022/04/25 07:54:52;;;;;;;9.73;8.83;;;12.40;99.90;;;;;;5014672;28;20465;-74
2022/04/25 07:57:19;;;;;;;8.93;8.13;;;12.40;99.90;;;;;;5014841;28;20275;-74
2022/04/25 07:59:45;;;;;;;8.40;7.70;;;12.40;99.90;;;;;;5015030;28;20427;-74
2022/04/25 08:02:11;;;;;;;8.87;8.07;;;12.30;99.90;;;;;;5014032;28;20415;-73
2022/04/25 08:04:37;;;;;;;8.60;7.90;;;12.30;99.90;;;;;;5014863;28;20557;-71
2022/04/25 08:07:02;;;;;;;9.00;8.20;;;12.40;99.90;;;;;;5012550;28;20179;-71
2022/04/25 08:09:28;;;;;;;8.50;7.60;;;12.40;99.90;;;;;;5014456;28;20427;-69
2022/04/25 08:17:56;;;;;;;9.50;8.60;;;12.30;99.90;;;;;;5015051;28;20576;-71
2022/04/25 08:20:08;;;;;;;8.13;7.53;;;12.20;99.90;;;;;;5013548;28;20559;-70
2022/04/25 08:22:35;;;;;;;10.00;9.10;;;12.20;99.90;;;;;;5013769;28;21000;-70
2022/04/25 08:25:04;;;;;;;10.00;9.00;;;12.30;99.90;;;;;;5012241;28;20915;-70
2022/04/25 08:27:30;;;;;;;9.93;9.03;;;12.20;99.90;;;;;;5014817;28;20960;-69
2022/04/25 08:29:57;;;;;;;9.57;8.80;;;12.30;99.90;;;;;;5014989;28;20419;-69
2022/04/25 08:32:22;;;;;;;9.30;8.40;;;12.30;99.90;;;;;;5014220;28;20465;-70
2022/04/25 08:34:48;;;;;;;12.20;11.00;;;12.40;99.90;;;;;;5014718;28;20418;-69
2022/04/25 08:37:16;;;;;;;10.33;9.40;;;12.40;99.90;;;;;;5013302;28;20636;-70
2022/04/25 08:39:42;;;;;;;9.27;8.57;;;12.20;99.90;;;;;;4995303;28;20176;-70
2022/04/25 08:42:09;;;;;;;10.23;9.33;;;12.10;99.90;;;;;;5004558;28;20452;-69
2022/04/25 08:44:35;;;;;;;9.70;8.80;;;12.20;99.90;;;;;;5014434;28;20748;-70
2022/04/25 08:47:01;;;;;;;9.73;8.83;;;12.30;99.90;;;;;;5013254;28;20869;-70
2022/04/25 08:49:28;;;;;;;9.70;8.90;;;12.30;99.90;;;;;;5014575;28;20561;-69
2022/04/25 08:51:58;;;;;;;10.47;9.57;;;12.40;99.90;;;;;;5013902;28;20465;-70
2022/04/25 08:54:35;;;;;;;11.13;10.00;;;12.50;99.90;;;;;;5013907;28;20411;-69
2022/04/25 08:57:03;;;;;;;10.57;9.40;;;12.60;99.90;;;;;;5014146;28;20469;-70
2022/04/25 08:59:31;;;;;;;10.43;9.43;;;12.70;99.90;;;;;;5014602;28;20504;-69
2022/04/25 09:01:57;;;;;;;11.00;10.07;;;12.70;99.90;;;;;;5013969;28;20497;-69
2022/04/25 09:04:24;;;;;;;10.97;9.90;;;12.80;99.90;;;;;;5013836;28;20475;-69
2022/04/25 09:06:55;;;;;;;10.77;9.67;;;12.80;99.90;;;;;;5014149;28;20427;-69
2022/04/25 09:09:21;;;;;;;12.03;10.90;;;12.80;99.90;;;;;;5013275;28;20451;-69
2022/04/25 09:14:45;;;;;;;10.97;9.97;;;12.80;99.90;;;;;;4972029;28;20436;-69
2022/04/25 09:17:11;;;;;;;10.10;9.20;;;12.70;99.90;;;;;;5003663;28;20432;-70
2022/04/25 09:19:39;;;;;;;11.10;10.20;;;12.80;99.90;;;;;;5013785;28;20903;-69
2022/04/25 09:22:09;;;;;;;11.97;10.87;;;12.90;99.90;;;;;;4994177;28;20418;-70
2022/04/25 09:24:43;;;;;;;10.73;9.80;;;12.70;99.90;;;;;;5011737;28;20417;-72
2022/04/25 09:27:18;;;;;;;10.63;9.53;;;12.70;99.90;;;;;;5019507;28;20503;-72
2022/04/25 09:29:46;;;;;;;11.77;10.77;;;12.80;99.90;;;;;;5013841;28;20435;-69
2022/04/25 09:32:13;;;;;;;12.60;11.40;;;12.80;99.90;;;;;;5011571;28;20466;-69
2022/04/25 09:37:43;;;;;;;11.87;10.77;;;12.90;99.90;;;;;;5012349;28;20424;-69
2022/04/25 09:40:09;;;;;;;12.37;11.17;;;13.00;99.90;;;;;;5012544;28;20568;-70
2022/04/25 09:42:36;;;;;;;12.57;11.47;;;13.10;99.90;;;;;;5013144;28;20517;-70
2022/04/25 09:45:03;;;;;;;13.70;10.60;;;13.10;99.90;;;;;;5012776;28;20419;-74
2022/04/25 09:47:31;;;;;;;12.03;10.73;;;13.20;99.90;;;;;;5013112;28;20460;-70
2022/04/25 09:50:17;;;;;;;12.03;10.93;;;13.20;99.90;;;;;;5013128;28;20551;-69
2022/04/25 09:53:00;;;;;;;11.30;10.20;;;13.40;99.90;;;;;;5012645;28;20479;-70
2022/04/25 09:55:30;;;;;;;13.27;11.97;;;13.40;99.90;;;;;;4991835;28;20429;-70
2022/04/25 09:57:55;;;;;;;12.57;11.47;;;13.60;99.90;;;;;;5007071;28;20421;-69
2022/04/25 10:00:28;;;;;;;12.37;11.30;;;13.80;99.90;;;;;;5012113;28;20433;-69
2022/04/25 10:02:55;;;;;;;13.00;11.80;;;14.00;99.90;;;;;;5012972;28;20447;-70
2022/04/25 10:05:20;;;;;;;11.67;10.53;;;14.10;99.90;;;;;;5011285;28;20531;-70
2022/04/25 10:07:47;;;;;;;11.10;10.10;;;14.30;99.90;;;;;;5012416;28;20946;-69
2022/04/25 10:10:13;;;;;;;12.03;9.80;;;14.40;99.90;;;;;;5012711;28;20187;-72
2022/04/25 10:12:39;;;;;;;11.87;10.80;;;14.50;99.90;;;;;;5012429;28;20474;-70
2022/04/25 10:15:06;;;;;;;11.23;10.23;;;14.60;99.90;;;;;;5012086;28;20422;-70
2022/04/25 10:17:32;;;;;;;10.73;9.83;;;14.80;99.90;;;;;;5012659;28;20506;-70
2022/04/25 10:20:00;;;;;;;10.87;9.97;;;15.00;99.90;;;;;;5012184;28;20441;-71
2022/04/25 10:22:26;;;;;;;11.00;10.10;;;15.30;98.80;;;;;;5008266;28;20441;-70
2022/04/25 10:24:52;;;;;;;11.03;9.97;;;15.40;98.70;;;;;;5011507;28;20434;-70
2022/04/25 10:27:24;;;;;;;12.70;11.60;;;15.50;99.10;;;;;;5011951;28;20210;-71
2022/04/25 10:29:53;;;;;;;11.23;10.33;;;15.60;98.00;;;;;;5011673;28;20572;-70
2022/04/25 10:32:23;;;;;;;12.10;11.20;;;15.60;96.90;;;;;;5012311;28;20476;-70
2022/04/25 10:35:04;;;;;;;12.63;11.63;;;15.70;97.20;;;;;;5011461;28;20479;-71
2022/04/25 10:37:35;;;;;;;11.57;10.67;;;15.60;95.90;;;;;;5011379;28;20421;-71
2022/04/25 10:40:09;;;;;;;10.77;9.77;;;15.50;97.00;;;;;;5013127;28;20483;-70
2022/04/25 10:46:01;;;;;;;12.93;11.27;;;15.70;95.40;;;;;;5011805;28;20428;-72
2022/04/25 10:48:28;;;;;;;12.40;11.30;;;15.10;95.60;;;;;;5010831;28;20471;-71
2022/04/25 10:51:16;;;;;;;11.90;10.70;;;15.10;96.50;;;;;;5011850;28;20455;-71
2022/04/25 10:54:00;;;;;;;11.87;10.77;;;15.10;96.60;;;;;;5009986;28;20789;-74
2022/04/25 10:56:30;;;;;;;11.70;10.70;;;14.80;96.50;;;;;;5010419;28;20817;-70
2022/04/25 10:59:25;;;;;;;11.30;10.30;;;14.70;96.50;;;;;;5014563;28;20437;-71
2022/04/25 11:01:52;;;;;;;12.13;11.13;;;14.60;96.60;;;;;;4991685;28;20511;-71
2022/04/25 11:04:20;;;;;;;12.83;11.63;;;14.70;97.50;;;;;;5008529;28;20514;-71
2022/04/25 11:06:47;;;;;;;11.40;10.40;;;14.60;98.60;;;;;;5011473;28;20449;-71
2022/04/25 11:09:37;;;;;;;11.00;10.00;;;14.70;97.50;;;;;;5011692;28;20482;-71
2022/04/25 11:12:03;;;;;;;12.13;11.03;;;14.70;96.70;;;;;;5012350;28;20465;-71
2022/04/25 11:14:29;;;;;;;12.30;11.30;;;14.70;96.50;;;;;;5009746;28;20438;-71
2022/04/25 11:17:12;;;;;;;10.80;9.97;;;14.70;96.90;;;;;;5012418;28;20405;-71
2022/04/25 11:19:51;;;;;;;10.40;9.50;;;14.70;96.90;;;;;;4992662;28;20430;-70
2022/04/25 11:22:35;;;;;;;12.27;11.27;;;14.70;97.20;;;;;;5006478;28;20415;-69
2022/04/25 11:25:22;;;;;;;13.10;12.00;;;14.70;97.30;;;;;;5002100;28;20476;-69
2022/04/25 11:28:05;;;;;;;11.70;10.70;;;14.70;97.50;;;;;;5012050;28;20434;-69
2022/04/25 11:30:31;;;;;;;13.23;12.13;;;14.60;97.20;;;;;;5011588;28;20422;-66
2022/04/25 11:33:08;;;;;;;12.67;11.57;;;14.50;97.10;;;;;;5007456;28;20494;-67
2022/04/25 11:35:35;;;;;;;11.30;10.40;;;14.50;96.80;;;;;;5008850;28;20423;-66
2022/04/25 11:38:01;;;;;;;11.43;10.43;;;14.30;96.80;;;;;;5012363;28;20413;-66
2022/04/25 11:40:28;;;;;;;11.47;10.50;;;13.90;97.30;;;;;;5011692;28;20429;-66
2022/04/25 11:42:54;;;;;;;12.23;11.13;;;13.80;97.80;;;;;;5011753;28;20438;-66
2022/04/25 11:45:20;;;;;;;12.47;11.17;;;13.80;98.90;;;;;;5011855;28;20429;-66
2022/04/25 11:47:45;;;;;;;12.67;11.47;;;13.80;99.50;;;;;;4995505;28;20949;-67
2022/04/25 11:50:12;;;;;;;12.00;11.00;;;13.80;99.90;;;;;;5010133;28;20425;-67
2022/04/25 11:52:49;;;;;;;12.50;11.30;;;13.80;99.90;;;;;;5012106;28;20214;-66
2022/04/25 11:55:17;;;;;;;13.30;11.93;;;13.90;99.90;;;;;;5011504;28;20420;-67
2022/04/25 11:57:43;;;;;;;13.30;12.07;;;14.10;99.90;;;;;;5011731;28;20415;-67
2022/04/25 12:00:17;;;;;;;14.03;12.83;;;14.00;99.90;;;;;;5013567;28;20440;-67
2022/04/25 12:02:44;;;;;;;12.67;11.60;;;14.00;99.90;;;;;;5002770;28;20469;-66
2022/04/25 12:05:11;;;;;;;13.03;11.83;;;14.00;99.90;;;;;;5014933;28;20422;-71
2022/04/25 12:15:33;;;;;;;13.50;12.30;;;14.00;99.90;;;;;;5014724;28;20465;-67
2022/04/25 12:15:56;;;;;;;13.50;12.27;;;14.10;99.90;;;;;;5015248;28;20424;-67
2022/04/25 12:18:27;;;;;;;12.53;11.33;;;13.80;99.90;;;;;;5010347;28;20565;-67
2022/04/25 12:21:12;;;;;;;13.60;12.30;;;13.80;99.90;;;;;;5011004;28;20269;-67
2022/04/25 12:23:50;;;;;;;13.23;12.03;;;13.90;99.90;;;;;;5014529;28;20913;-67
2022/04/25 12:26:27;;;;;;;12.70;11.50;;;13.90;99.90;;;;;;5014608;28;20909;-67
2022/04/25 12:29:00;;;;;;;12.87;11.70;;;14.00;99.90;;;;;;5014324;28;20453;-71
2022/04/25 12:31:36;;;;;;;11.63;10.53;;;14.10;99.90;;;;;;5013509;28;20466;-72
2022/04/25 12:34:07;;;;;;;12.40;11.13;;;14.20;99.90;;;;;;5017278;28;20480;-75
2022/04/25 12:36:34;;;;;;;13.07;11.90;;;14.40;99.90;;;;;;5013933;28;20457;-75
2022/04/25 12:39:08;;;;;;;12.70;11.70;;;14.50;99.90;;;;;;5014257;28;20442;-75
2022/04/25 12:41:39;;;;;;;12.13;11.13;;;14.60;99.90;;;;;;5013019;28;20450;-75
2022/04/25 12:44:10;;;;;;;12.80;11.70;;;14.70;99.90;;;;;;5014201;28;20470;-75
2022/04/25 12:46:47;;;;;;;12.33;11.33;;;14.90;99.90;;;;;;5009010;28;20435;-75
2022/04/25 12:49:22;;;;;;;13.63;12.33;;;15.00;99.90;;;;;;5012529;28;20522;-74
2022/04/25 12:51:54;;;;;;;12.90;11.80;;;15.10;99.90;;;;;;5013918;28;20912;-75
2022/04/25 12:54:21;;;;;;;13.33;12.13;;;15.20;99.90;;;;;;5008998;28;20491;-75
2022/04/25 12:56:48;;;;;;;12.20;11.10;;;15.20;99.40;;;;;;5013766;28;20805;-75
2022/04/25 12:59:29;;;;;;;13.20;11.90;;;14.90;99.90;;;;;;5013746;28;20425;-74
2022/04/25 13:02:11;;;;;;;12.90;11.80;;;15.00;99.90;;;;;;4995027;28;20404;-75
2022/04/25 13:05:07;;;;;;;14.70;13.40;;;15.20;99.90;;;;;;5010578;28;20442;-75
2022/04/25 13:07:41;;;;;;;15.27;13.97;;;15.20;99.90;;;;;;5003974;28;20519;-74
2022/04/25 13:10:12;;;;;;;12.33;11.33;;;15.10;99.90;;;;;;5013402;28;20466;-74
2022/04/25 13:12:43;;;;;;;12.83;11.63;;;15.00;99.90;;;;;;5000391;28;20451;-75
2022/04/25 13:15:15;;;;;;;13.50;12.40;;;15.00;99.90;;;;;;5013849;28;20424;-76
2022/04/25 13:17:41;;;;;;;14.00;12.60;;;14.90;99.90;;;;;;5013650;28;20427;-69
2022/04/25 13:20:13;;;;;;;14.60;13.20;;;14.90;99.90;;;;;;5013917;28;20439;-71
2022/04/25 13:22:39;;;;;;;13.00;11.90;;;14.90;99.90;;;;;;5013470;28;20431;-70